Terminal Aerodrome Forecast
Issued by NWS

Home | Current Version | Previous Version | Text Only | Print | Product List | Glossary On
Versions: 1 2 3 4 5 6 7 8 9 10 11 12 13 14 15 16
000
FTUS41 KCAR 022331
TAFHUL
TAF
KHUL 022331Z 0300/0324 VRB04KT 1 1/2SM -RA BR FEW008 BKN015 OVC025
     FM030400 02005KT P6SM OVC010
     FM031200 36007KT P6SM BKN020
     FM031700 36007KT P6SM BKN035=

USA.gov is the U.S. government's official web portal to all federal, state and local government web resources and services.